Time;durP1;ratioP1;P1;durP2;ratioP2;P2;SDS_P1;SDS_P2;PMS_P1;PMS_P2;Temp;Humidity;BMP_temperature;BMP_pressure;BME280_temperature;BME280_humidity;BME280_pressure;Samples;Min_cycle;Max_cycle;Signal;HPM_P1;HPM_P2
2021/12/22 00:01:35;;;;;;;0.00;0.00;;;;;;;-3.44;100.00;99459.38;5042766;28;20289;-56
2021/12/22 00:04:03;;;;;;;0.00;0.00;;;;;;;-3.59;100.00;99452.13;5033989;28;20185;-56
2021/12/22 00:06:32;;;;;;;0.00;0.00;;;;;;;-3.66;100.00;99454.00;5033877;28;20249;-56
2021/12/22 00:09:00;;;;;;;0.00;0.00;;;;;;;-3.60;100.00;99465.78;5033693;28;20607;-56
2021/12/22 00:11:27;;;;;;;0.00;0.00;;;;;;;-3.62;100.00;99481.09;5032943;28;20206;-54
2021/12/22 00:13:54;;;;;;;0.00;0.00;;;;;;;-3.58;100.00;99479.31;5033905;28;20232;-56
2021/12/22 00:16:22;;;;;;;0.00;0.00;;;;;;;-3.53;100.00;99481.75;5033079;28;20271;-56
2021/12/22 00:18:49;;;;;;;0.00;0.00;;;;;;;-3.59;100.00;99482.75;5043951;28;20205;-55
2021/12/22 00:21:16;;;;;;;0.00;0.00;;;;;;;-3.64;100.00;99471.84;5044879;28;20191;-53
2021/12/22 00:23:43;;;;;;;0.00;0.00;;;;;;;-3.62;100.00;99486.22;5033179;28;20659;-55
2021/12/22 00:26:10;;;;;;;0.00;0.00;;;;;;;-3.64;100.00;99487.97;5033450;28;20275;-56
2021/12/22 00:28:36;;;;;;;0.00;0.00;;;;;;;-3.62;100.00;99486.22;5033597;28;20669;-56
2021/12/22 00:31:10;;;;;;;0.00;0.00;;;;;;;-3.61;100.00;99477.69;5032249;28;20209;-56
2021/12/22 00:33:46;;;;;;;0.00;0.00;;;;;;;-3.62;100.00;99470.91;5033230;28;20607;-56
2021/12/22 00:36:14;;;;;;;0.00;0.00;;;;;;;-3.60;100.00;99476.81;5033117;28;20208;-56
2021/12/22 00:38:41;;;;;;;0.00;0.00;;;;;;;-3.58;100.00;99469.13;5033042;28;20260;-56
2021/12/22 00:41:08;;;;;;;0.00;0.00;;;;;;;-3.62;100.00;99472.63;5035941;28;20719;-54
2021/12/22 00:43:35;;;;;;;0.00;0.00;;;;;;;-3.58;100.00;99469.13;5051799;28;20197;-57
2021/12/22 00:46:03;;;;;;;0.10;0.10;;;;;;;-3.62;100.00;99476.00;5052338;28;20762;-56
2021/12/22 00:48:29;;;;;;;0.00;0.00;;;;;;;-3.54;100.00;99469.84;5052736;28;20288;-56
2021/12/22 00:50:58;;;;;;;0.00;0.00;;;;;;;-3.53;100.00;99472.38;5052333;28;20213;-56
2021/12/22 00:53:24;;;;;;;0.00;0.00;;;;;;;-3.54;100.00;99474.97;5052458;28;20190;-55
2021/12/22 00:55:52;;;;;;;0.00;0.00;;;;;;;-3.53;100.00;99479.19;5052982;28;20228;-56
2021/12/22 00:58:20;;;;;;;0.00;0.00;;;;;;;-3.51;100.00;99475.75;5052624;28;20195;-56
2021/12/22 01:00:48;;;;;;;0.00;0.00;;;;;;;-3.47;100.00;99469.69;5051930;28;20182;-57
2021/12/22 01:03:16;;;;;;;0.00;0.00;;;;;;;-3.47;100.00;99472.22;5052694;28;20232;-55
2021/12/22 01:05:43;;;;;;;0.00;0.00;;;;;;;-3.47;99.95;99461.16;5052745;28;20308;-55
2021/12/22 01:08:11;;;;;;;0.00;0.00;;;;;;;-3.49;100.00;99462.91;5040529;28;20812;-56
2021/12/22 01:10:38;;;;;;;0.00;0.00;;;;;;;-3.50;100.00;99458.69;5048035;28;20228;-54
2021/12/22 01:13:07;;;;;;;0.00;0.00;;;;;;;-3.59;98.83;99452.13;5032884;28;20189;-56
2021/12/22 01:15:35;;;;;;;0.00;0.00;;;;;;;-3.61;99.02;99459.00;5032025;28;20217;-56
2021/12/22 01:18:09;;;;;;;0.00;0.00;;;;;;;-3.61;99.60;99451.34;5032470;28;20201;-56
2021/12/22 01:20:50;;;;;;;0.00;0.00;;;;;;;-3.60;98.85;99448.72;5032034;28;20224;-55
2021/12/22 01:23:20;;;;;;;0.00;0.00;;;;;;;-3.62;98.02;99457.31;5031836;28;20182;-56
2021/12/22 01:25:48;;;;;;;0.00;0.00;;;;;;;-3.62;98.71;99465.78;5034599;28;20212;-55
2021/12/22 01:28:15;;;;;;;0.00;0.00;;;;;;;-3.58;99.06;99469.13;5052190;28;20610;-57
2021/12/22 01:30:44;;;;;;;0.00;0.00;;;;;;;-3.60;98.64;99465.78;5048686;28;20650;-57
2021/12/22 01:33:12;;;;;;;0.00;0.00;;;;;;;-3.54;98.18;99469.84;5050892;28;20681;-56
2021/12/22 01:35:40;;;;;;;0.00;0.00;;;;;;;-3.60;98.86;99474.25;5051628;28;20209;-56
2021/12/22 01:38:07;;;;;;;0.00;0.00;;;;;;;-3.56;98.32;99469.91;5051654;28;20191;-55
2021/12/22 01:40:39;;;;;;;0.00;0.00;;;;;;;-3.55;98.86;99466.50;5050426;28;20186;-56
2021/12/22 01:43:08;;;;;;;0.00;0.00;;;;;;;-3.66;99.21;99466.75;5050567;28;20276;-56
2021/12/22 01:45:53;;;;;;;0.00;0.00;;;;;;;-3.58;99.41;99469.13;5051015;28;20217;-55
2021/12/22 01:51:34;;;;;;;0.00;0.00;;;;;;;-3.69;98.18;99486.41;5051314;28;20221;-56
2021/12/22 01:54:04;;;;;;;0.00;0.00;;;;;;;-3.73;98.89;99478.84;5051122;28;20276;-56
2021/12/22 01:56:34;;;;;;;0.00;0.00;;;;;;;-3.82;99.41;99481.63;5052274;28;20567;-54
2021/12/22 01:59:03;;;;;;;0.00;0.00;;;;;;;-3.74;99.14;99478.91;5051915;28;20194;-56
2021/12/22 02:01:32;;;;;;;0.00;0.00;;;;;;;-3.76;99.53;99473.00;5051366;28;20755;-55
2021/12/22 02:03:59;;;;;;;0.00;0.00;;;;;;;-3.71;100.00;99471.16;5052237;28;20276;-54
2021/12/22 02:06:27;;;;;;;0.00;0.00;;;;;;;-3.64;100.00;99466.72;5051880;28;20209;-52
2021/12/22 02:08:54;;;;;;;0.00;0.00;;;;;;;-3.72;99.14;99462.66;5052046;28;20209;-53
2021/12/22 02:11:23;;;;;;;0.00;0.00;;;;;;;-3.73;99.01;99467.81;5051085;28;20204;-55
2021/12/22 02:13:59;;;;;;;0.00;0.00;;;;;;;-3.69;98.31;99476.22;5051968;28;20272;-54
2021/12/22 02:16:29;;;;;;;0.00;0.00;;;;;;;-3.69;98.34;99468.56;5051613;28;20203;-55
2021/12/22 02:18:57;;;;;;;0.00;0.00;;;;;;;-3.71;97.72;99469.44;5050724;28;20194;-51
2021/12/22 02:21:29;;;;;;;0.00;0.00;;;;;;;-3.72;96.77;99470.31;5050985;28;20196;-53
2021/12/22 02:23:56;;;;;;;0.00;0.00;;;;;;;-3.74;96.92;99463.59;5043053;28;20198;-54
2021/12/22 02:26:29;;;;;;;0.00;0.00;;;;;;;-3.88;96.19;99466.47;5050575;28;20229;-52
2021/12/22 02:29:00;;;;;;;0.00;0.00;;;;;;;-3.93;97.42;99464.06;5044773;28;20196;-52
2021/12/22 02:31:28;;;;;;;0.00;0.00;;;;;;;-3.89;99.12;99459.69;5048385;28;20209;-55
2021/12/22 02:33:57;;;;;;;0.00;0.00;;;;;;;-3.88;98.66;99463.94;5051609;28;20545;-55
2021/12/22 02:36:29;;;;;;;0.00;0.00;;;;;;;-3.85;99.25;99453.66;5050935;28;20205;-53
2021/12/22 02:38:58;;;;;;;0.00;0.00;;;;;;;-3.82;98.95;99451.00;5050693;28;20552;-51
2021/12/22 02:41:29;;;;;;;0.00;0.00;;;;;;;-3.73;99.14;99455.06;5050015;28;20268;-53
2021/12/22 02:43:57;;;;;;;0.00;0.00;;;;;;;-3.71;98.66;99459.22;5051241;28;20586;-54
2021/12/22 02:46:25;;;;;;;0.00;0.00;;;;;;;-3.70;98.89;99462.59;5050613;28;20612;-53
2021/12/22 02:48:54;;;;;;;0.00;0.00;;;;;;;-3.63;98.89;99463.28;5049684;28;20254;-54
2021/12/22 02:51:22;;;;;;;0.00;0.00;;;;;;;-3.61;98.60;99461.53;5050488;28;20210;-54
2021/12/22 02:54:02;;;;;;;0.00;0.00;;;;;;;-3.58;98.51;99456.34;5050039;28;20666;-54
2021/12/22 02:56:36;;;;;;;0.00;0.00;;;;;;;-3.67;97.41;99456.59;5050907;28;20697;-55
2021/12/22 02:59:13;;;;;;;0.00;0.00;;;;;;;-3.73;96.49;99466.09;5050910;28;20266;-54
2021/12/22 03:04:26;;;;;;;0.00;0.00;;;;;;;-3.78;98.06;99465.38;5050823;28;20329;-51
2021/12/22 03:06:58;;;;;;;0.00;0.00;;;;;;;-3.72;99.28;99475.41;5050463;28;20200;-52
2021/12/22 03:09:29;;;;;;;0.00;0.00;;;;;;;-3.64;98.90;99471.84;5048121;28;20201;-54
2021/12/22 03:11:59;;;;;;;0.10;0.10;;;;;;;-3.66;98.42;99471.84;5051748;28;20218;-54
2021/12/22 03:14:28;;;;;;;0.10;0.10;;;;;;;-3.59;98.16;99490.41;5051232;28;20223;-54
2021/12/22 03:16:56;;;;;;;0.00;0.00;;;;;;;-3.58;97.04;99490.34;5051129;28;20431;-54
2021/12/22 03:19:25;;;;;;;0.00;0.00;;;;;;;-3.53;97.09;99474.94;5050367;28;20752;-53
2021/12/22 03:21:59;;;;;;;0.00;0.00;;;;;;;-3.53;97.02;99480.03;5049954;28;20201;-55
2021/12/22 03:24:31;;;;;;;0.00;0.00;;;;;;;-3.48;96.35;99473.09;5050511;28;20189;-56
2021/12/22 03:27:00;;;;;;;0.00;0.00;;;;;;;-3.46;96.35;99476.44;5052509;28;20616;-54
2021/12/22 03:29:27;;;;;;;0.00;0.00;;;;;;;-3.45;96.20;99483.22;5052177;28;20208;-54
2021/12/22 03:31:54;;;;;;;0.00;0.00;;;;;;;-3.47;95.44;99477.34;5048177;28;20205;-52
2021/12/22 03:34:21;;;;;;;0.00;0.00;;;;;;;-3.47;95.33;99477.34;5053032;28;20666;-53
2021/12/22 03:36:48;;;;;;;0.00;0.00;;;;;;;-3.51;95.54;99472.34;5049940;28;20239;-52
2021/12/22 03:39:16;;;;;;;0.00;0.00;;;;;;;-3.52;95.48;99468.97;5053427;28;20199;-54
2021/12/22 03:41:46;;;;;;;0.00;0.00;;;;;;;-3.51;96.14;99472.34;5052111;28;20201;-56
2021/12/22 03:44:14;;;;;;;0.00;0.00;;;;;;;-3.49;96.20;99473.97;5052216;28;20277;-56
2021/12/22 03:46:41;;;;;;;0.00;0.00;;;;;;;-3.50;95.21;99462.09;5052772;28;20217;-54
2021/12/22 03:49:10;;;;;;;0.00;0.00;;;;;;;-3.52;96.52;99457.91;5048307;28;20578;-54
2021/12/22 03:51:37;;;;;;;0.00;0.00;;;;;;;-3.54;95.21;99462.22;5051286;28;20681;-52
2021/12/22 03:54:04;;;;;;;0.00;0.00;;;;;;;-3.63;95.79;99458.19;5053737;28;20188;-55
2021/12/22 03:56:31;;;;;;;0.00;0.00;;;;;;;-3.58;96.07;99456.34;5053460;28;20211;-53
2021/12/22 03:58:59;;;;;;;0.00;0.00;;;;;;;-3.67;96.15;99449.78;5053456;28;20593;-54
2021/12/22 04:01:26;;;;;;;0.00;0.00;;;;;;;-3.68;96.30;99443.00;5053067;28;20220;-52
2021/12/22 04:03:57;;;;;;;0.00;0.00;;;;;;;-3.76;95.97;99450.03;5053490;28;20676;-55
2021/12/22 04:06:24;;;;;;;0.00;0.00;;;;;;;-3.83;95.69;99453.63;5053152;28;20219;-55
2021/12/22 04:08:51;;;;;;;0.00;0.00;;;;;;;-3.77;96.44;99448.34;5053157;28;20192;-56
2021/12/22 04:11:17;;;;;;;0.00;0.00;;;;;;;-3.77;96.60;99449.19;5052835;28;20187;-56
2021/12/22 04:13:45;;;;;;;0.00;0.00;;;;;;;-3.74;97.17;99441.44;5053045;28;20768;-55
2021/12/22 04:16:13;;;;;;;0.00;0.00;;;;;;;-3.72;96.63;99447.34;5053458;28;20212;-55
2021/12/22 04:18:39;;;;;;;0.00;0.00;;;;;;;-3.67;97.33;99452.31;5052830;28;20192;-55
2021/12/22 04:21:06;;;;;;;0.00;0.00;;;;;;;-3.60;97.89;99453.00;5046579;28;20201;-57
2021/12/22 04:23:33;;;;;;;0.00;0.00;;;;;;;-3.61;97.30;99453.88;5052224;28;20282;-56
2021/12/22 04:26:00;;;;;;;0.00;0.00;;;;;;;-3.61;97.83;99456.44;5051833;28;20221;-55
2021/12/22 04:28:27;;;;;;;0.00;0.00;;;;;;;-3.59;97.78;99457.25;5052262;28;20724;-55
2021/12/22 04:30:54;;;;;;;0.00;0.00;;;;;;;-3.52;98.68;99456.19;5052350;28;20754;-55
2021/12/22 04:33:22;;;;;;;0.00;0.00;;;;;;;-3.50;97.51;99458.69;5052706;28;20218;-54
2021/12/22 04:35:49;;;;;;;0.00;0.00;;;;;;;-3.51;96.74;99452.75;5052310;28;20213;-55
2021/12/22 04:38:17;;;;;;;0.00;0.00;;;;;;;-3.52;97.43;99455.34;5052939;28;20556;-54
2021/12/22 04:40:44;;;;;;;0.00;0.00;;;;;;;-3.51;96.51;99460.41;5052380;28;20202;-56
2021/12/22 04:43:11;;;;;;;0.00;0.00;;;;;;;-3.60;95.48;99450.47;5046925;28;20217;-55
2021/12/22 04:45:38;;;;;;;0.00;0.00;;;;;;;-3.60;95.74;99450.47;5047619;28;20793;-55
2021/12/22 04:48:05;;;;;;;0.00;0.00;;;;;;;-3.59;95.78;99449.59;5050904;28;20285;-55
2021/12/22 04:50:35;;;;;;;0.00;0.00;;;;;;;-3.59;95.45;99447.84;5050243;28;20674;-54
2021/12/22 04:53:03;;;;;;;0.00;0.00;;;;;;;-3.64;94.92;99457.34;5052323;28;20220;-55
2021/12/22 04:55:30;;;;;;;0.00;0.00;;;;;;;-3.69;93.90;99450.69;5034793;28;20221;-55
2021/12/22 04:57:59;;;;;;;0.00;0.00;;;;;;;-3.80;93.45;99456.91;5032263;28;20189;-51
2021/12/22 05:00:28;;;;;;;0.00;0.00;;;;;;;-3.76;94.97;99453.41;5030926;28;20699;-51
2021/12/22 05:02:55;;;;;;;0.00;0.00;;;;;;;-3.72;94.96;99451.63;5032055;28;20193;-54
2021/12/22 05:05:22;;;;;;;0.00;0.00;;;;;;;-3.64;95.70;99448.88;5031872;28;20566;-52
2021/12/22 05:07:50;;;;;;;0.00;0.00;;;;;;;-3.62;95.87;99453.03;5031733;28;20209;-52
2021/12/22 05:10:19;;;;;;;0.07;0.07;;;;;;;-3.59;95.40;99450.41;5030849;28;20190;-52
2021/12/22 05:12:47;;;;;;;0.00;0.00;;;;;;;-3.57;95.49;99442.72;5031775;28;20721;-54
2021/12/22 05:15:17;;;;;;;0.00;0.00;;;;;;;-3.53;95.27;99451.97;5031244;28;20201;-53
2021/12/22 05:20:28;;;;;;;0.00;0.00;;;;;;;-3.55;94.58;99448.63;5050416;28;20236;-55
2021/12/22 05:22:56;;;;;;;0.10;0.10;;;;;;;-3.57;94.61;99453.75;5051375;28;20193;-51
2021/12/22 05:25:23;;;;;;;0.00;0.00;;;;;;;-3.59;94.63;99468.28;5051360;28;20629;-54
2021/12/22 05:27:50;;;;;;;0.00;0.00;;;;;;;-3.58;93.56;99459.72;5049590;28;20224;-53
2021/12/22 05:30:16;;;;;;;0.00;0.00;;;;;;;-3.65;93.00;99453.13;5046956;28;20204;-53
2021/12/22 05:32:43;;;;;;;0.00;0.00;;;;;;;-3.75;93.25;99444.06;5049781;28;20221;-55
2021/12/22 05:35:11;;;;;;;0.00;0.00;;;;;;;-3.71;95.63;99443.91;5045093;28;20205;-51
2021/12/22 05:37:39;;;;;;;0.00;0.00;;;;;;;-3.68;95.16;99449.81;5048449;28;20193;-51
2021/12/22 05:40:09;;;;;;;0.00;0.00;;;;;;;-3.69;94.54;99453.25;5030669;28;20204;-51
2021/12/22 05:42:36;;;;;;;0.00;0.00;;;;;;;-3.64;94.31;99448.88;5030864;28;20181;-56
2021/12/22 05:45:04;;;;;;;0.07;0.07;;;;;;;-3.61;94.32;99441.94;5031202;28;20380;-52
2021/12/22 05:47:31;;;;;;;0.00;0.00;;;;;;;-3.60;93.07;99446.19;5030923;28;20190;-54
2021/12/22 05:49:58;;;;;;;0.00;0.00;;;;;;;-3.58;93.36;99453.81;5029846;28;20197;-54
2021/12/22 05:52:25;;;;;;;0.00;0.00;;;;;;;-3.60;92.83;99453.84;5031101;28;20252;-52
2021/12/22 05:54:51;;;;;;;0.00;0.00;;;;;;;-3.68;91.89;99453.19;5030849;28;20193;-54
2021/12/22 05:57:19;;;;;;;0.00;0.00;;;;;;;-3.73;92.96;99449.97;5030586;28;20304;-54
2021/12/22 05:59:46;;;;;;;0.00;0.00;;;;;;;-3.83;93.72;99436.59;5030124;28;20276;-55
2021/12/22 06:02:13;;;;;;;0.00;0.00;;;;;;;-3.77;94.17;99438.16;5030897;28;20203;-54
2021/12/22 06:04:40;;;;;;;0.00;0.00;;;;;;;-3.83;94.19;99434.03;5030874;28;20195;-55
2021/12/22 06:07:06;;;;;;;0.00;0.00;;;;;;;-3.78;94.19;99428.81;5030525;28;20297;-54
2021/12/22 06:09:33;;;;;;;0.00;0.00;;;;;;;-3.74;95.28;99428.69;5030280;28;20204;-53
2021/12/22 06:12:00;;;;;;;0.00;0.00;;;;;;;-3.72;94.40;99426.94;5030645;28;20223;-55
2021/12/22 06:14:28;;;;;;;0.00;0.00;;;;;;;-3.66;94.91;99433.56;5030361;28;20210;-54
2021/12/22 06:16:55;;;;;;;0.00;0.00;;;;;;;-3.62;94.40;99442.81;5030793;28;20787;-54
2021/12/22 06:19:22;;;;;;;0.00;0.00;;;;;;;-3.66;93.35;99443.78;5046927;28;20193;-53
2021/12/22 06:21:49;;;;;;;0.00;0.00;;;;;;;-3.73;92.97;99445.69;5047512;28;20669;-56
2021/12/22 06:24:16;;;;;;;0.00;0.00;;;;;;;-3.71;92.98;99445.66;5049922;28;20251;-53
2021/12/22 06:26:43;;;;;;;0.00;0.00;;;;;;;-3.66;94.38;99448.88;5041121;28;20660;-55
2021/12/22 06:29:10;;;;;;;0.00;0.00;;;;;;;-3.62;93.95;99457.31;5048887;28;20614;-54
2021/12/22 06:31:38;;;;;;;0.00;0.00;;;;;;;-3.69;92.97;99463.47;5049620;28;20674;-54
2021/12/22 06:34:05;;;;;;;0.00;0.00;;;;;;;-3.73;93.19;99455.06;5050126;28;20291;-56
2021/12/22 06:36:32;;;;;;;0.00;0.00;;;;;;;-3.74;93.38;99459.31;5049643;28;20220;-54
2021/12/22 06:38:59;;;;;;;0.10;0.10;;;;;;;-3.71;94.33;99450.75;5050078;28;20193;-56
2021/12/22 06:41:28;;;;;;;0.00;0.00;;;;;;;-3.72;93.89;99449.09;5049712;28;20192;-53
2021/12/22 06:43:57;;;;;;;0.00;0.00;;;;;;;-3.84;92.44;99457.88;5049663;28;20200;-54
2021/12/22 06:46:27;;;;;;;0.00;0.00;;;;;;;-3.89;92.88;99459.69;5049933;28;20205;-56
2021/12/22 06:48:55;;;;;;;0.00;0.00;;;;;;;-3.86;93.15;99470.69;5049815;28;20662;-54
2021/12/22 06:51:22;;;;;;;0.00;0.00;;;;;;;-3.89;92.55;99480.09;5048133;28;20304;-56
2021/12/22 06:53:48;;;;;;;0.00;0.00;;;;;;;-3.95;92.48;99490.47;5043873;28;20575;-55
2021/12/22 06:56:16;;;;;;;0.00;0.00;;;;;;;-3.92;92.35;99492.94;5049750;28;20218;-55
2021/12/22 06:58:43;;;;;;;0.00;0.00;;;;;;;-3.90;93.23;99493.72;5028653;28;20196;-55
2021/12/22 07:01:12;;;;;;;0.00;0.00;;;;;;;-3.89;93.45;99492.84;5027698;28;20303;-55
2021/12/22 07:03:39;;;;;;;0.00;0.00;;;;;;;-3.86;93.75;99490.22;5030194;28;20215;-57
2021/12/22 07:06:07;;;;;;;0.00;0.00;;;;;;;-3.92;93.72;99486.13;5029527;28;20206;-54
2021/12/22 07:08:34;;;;;;;0.00;0.00;;;;;;;-3.87;93.63;99494.50;5030088;28;20251;-55
2021/12/22 07:11:01;;;;;;;0.00;0.00;;;;;;;-3.84;94.57;99503.78;5029374;28;20192;-56
2021/12/22 07:13:28;;;;;;;0.00;0.00;;;;;;;-3.79;93.77;99501.97;5029232;28;20240;-56
2021/12/22 07:15:54;;;;;;;0.00;0.00;;;;;;;-3.84;92.60;99503.78;5029800;28;20266;-56
2021/12/22 07:18:24;;;;;;;0.00;0.00;;;;;;;-3.94;93.20;99499.78;5038371;28;20192;-56
2021/12/22 07:20:51;;;;;;;0.00;0.00;;;;;;;-3.90;93.30;99506.50;5048558;28;20195;-53
2021/12/22 07:23:19;;;;;;;0.10;0.10;;;;;;;-3.93;93.09;99515.06;5049747;28;20192;-55
2021/12/22 07:25:46;;;;;;;0.00;0.00;;;;;;;-3.91;93.64;99523.53;5049505;28;20295;-55
2021/12/22 07:28:13;;;;;;;0.00;0.00;;;;;;;-4.00;94.46;99516.09;5048648;28;20966;-55
2021/12/22 07:30:40;;;;;;;0.00;0.00;;;;;;;-3.98;94.24;99519.44;5048200;28;20218;-56
2021/12/22 07:33:07;;;;;;;0.00;0.00;;;;;;;-3.91;94.32;99517.56;5049491;28;20212;-57
2021/12/22 07:35:38;;;;;;;0.00;0.00;;;;;;;-3.84;94.30;99524.19;5049375;28;20210;-56
2021/12/22 07:38:22;;;;;;;0.00;0.00;;;;;;;-3.81;93.73;99526.69;5049411;28;20185;-56
2021/12/22 07:40:50;;;;;;;0.00;0.00;;;;;;;-3.76;93.98;99518.91;5046235;28;20244;-55
2021/12/22 07:43:17;;;;;;;0.10;0.10;;;;;;;-3.67;94.73;99522.94;5046425;28;20276;-56
2021/12/22 07:45:44;;;;;;;0.00;0.00;;;;;;;-3.54;94.99;99523.47;5041378;28;20213;-57
2021/12/22 07:48:10;;;;;;;0.00;0.00;;;;;;;-3.42;95.09;99521.44;5049509;28;20272;-56
2021/12/22 07:50:37;;;;;;;0.00;0.00;;;;;;;-3.35;93.60;99511.06;5048107;28;20197;-57
2021/12/22 07:53:05;;;;;;;0.00;0.00;;;;;;;-3.30;92.61;99527.09;5049548;28;20211;-55
2021/12/22 07:55:31;;;;;;;0.00;0.00;;;;;;;-3.30;91.85;99527.09;5049558;28;20204;-57
2021/12/22 07:58:04;;;;;;;0.00;0.00;;;;;;;-3.31;92.95;99527.97;5051390;28;20264;-56
2021/12/22 08:00:31;;;;;;;0.00;0.00;;;;;;;-3.32;91.23;99523.75;5052367;28;20710;-54
2021/12/22 08:02:57;;;;;;;0.00;0.00;;;;;;;-3.31;90.83;99510.13;5052709;28;20189;-56
2021/12/22 08:05:24;;;;;;;0.03;0.03;;;;;;;-3.26;90.98;99508.28;5052498;28;20624;-56
2021/12/22 08:07:51;;;;;;;0.00;0.00;;;;;;;-3.26;90.41;99509.09;5052827;28;20215;-57
2021/12/22 08:10:18;;;;;;;0.00;0.00;;;;;;;-3.41;90.01;99505.25;5052116;28;20262;-56
2021/12/22 08:12:45;;;;;;;0.00;0.00;;;;;;;-3.54;90.42;99509.00;5052463;28;20533;-57
2021/12/22 08:15:15;;;;;;;0.00;0.00;;;;;;;-3.63;90.63;99504.13;5052571;28;20194;-56
2021/12/22 08:17:42;;;;;;;0.00;0.00;;;;;;;-3.63;90.90;99506.69;5052898;28;20272;-57
2021/12/22 08:20:09;;;;;;;0.07;0.07;;;;;;;-3.60;90.85;99507.41;5051534;28;20294;-57
2021/12/22 08:22:36;;;;;;;0.10;0.10;;;;;;;-3.51;90.83;99503.81;5052362;28;20220;-56
2021/12/22 08:25:06;;;;;;;0.00;0.00;;;;;;;-3.47;90.02;99505.41;5052510;28;20190;-56
2021/12/22 08:27:34;;;;;;;0.00;0.00;;;;;;;-3.40;91.07;99503.53;5052467;28;20322;-56
2021/12/22 08:30:01;;;;;;;0.00;0.00;;;;;;;-3.31;90.78;99503.28;5048679;28;20228;-56
2021/12/22 08:32:29;;;;;;;0.00;0.00;;;;;;;-3.26;89.25;99496.31;5052320;28;20250;-57
2021/12/22 08:34:57;;;;;;;0.10;0.10;;;;;;;-3.28;89.58;99502.38;5052187;28;20216;-55
2021/12/22 08:40:11;;;;;;;0.00;0.00;;;;;;;-3.28;88.24;99504.94;5051662;28;20267;-57
2021/12/22 08:42:38;;;;;;;0.00;0.00;;;;;;;-3.18;89.50;99506.31;5053182;28;20191;-56
2021/12/22 08:45:06;;;;;;;0.00;0.00;;;;;;;-3.08;89.03;99503.50;5053054;28;20201;-56
2021/12/22 08:47:35;;;;;;;0.00;0.00;;;;;;;-2.98;88.19;99502.38;5052875;28;20238;-55
2021/12/22 08:50:03;;;;;;;0.00;0.00;;;;;;;-2.94;88.41;99510.81;5052070;28;21027;-58
2021/12/22 08:52:31;;;;;;;0.00;0.00;;;;;;;-2.92;88.19;99499.66;5045148;28;20191;-56
2021/12/22 08:54:58;;;;;;;0.00;0.00;;;;;;;-2.89;88.67;99507.22;5052365;28;20221;-56
2021/12/22 08:57:24;;;;;;;0.00;0.00;;;;;;;-2.99;89.38;99501.56;5051707;28;20702;-57
2021/12/22 08:59:51;;;;;;;0.00;0.00;;;;;;;-2.84;88.96;99502.00;5030970;28;20698;-57
2021/12/22 09:02:19;;;;;;;0.00;0.00;;;;;;;-2.76;89.00;99499.22;5032525;28;20194;-55
2021/12/22 09:04:47;;;;;;;0.00;0.00;;;;;;;-2.67;87.56;99501.50;5032554;28;20271;-56
2021/12/22 09:07:14;;;;;;;0.00;0.00;;;;;;;-2.49;87.87;99504.41;5032468;28;20231;-55
2021/12/22 09:09:41;;;;;;;0.00;0.00;;;;;;;-2.46;86.80;99504.31;5031758;28;20192;-56
2021/12/22 09:12:09;;;;;;;0.00;0.00;;;;;;;-2.40;86.00;99504.13;5032249;28;20179;-53
2021/12/22 09:14:36;;;;;;;0.00;0.00;;;;;;;-2.35;86.13;99504.81;5032427;28;20297;-55
2021/12/22 09:17:03;;;;;;;0.00;0.00;;;;;;;-2.34;85.21;99510.75;5038637;28;20210;-56
2021/12/22 09:19:30;;;;;;;0.00;0.00;;;;;;;-2.22;85.62;99512.94;5047675;28;20210;-57
2021/12/22 09:21:58;;;;;;;0.00;0.00;;;;;;;-2.20;84.03;99518.00;5051396;28;20193;-54
2021/12/22 09:24:25;;;;;;;0.00;0.00;;;;;;;-2.24;84.14;99520.66;5042953;28;20278;-57
2021/12/22 09:26:51;;;;;;;0.00;0.00;;;;;;;-2.20;84.63;99520.56;5031920;28;20203;-56
2021/12/22 09:29:18;;;;;;;0.00;0.00;;;;;;;-2.18;84.79;99522.19;5032195;28;20602;-57
2021/12/22 09:31:45;;;;;;;0.00;0.00;;;;;;;-2.15;84.64;99529.75;5049255;28;20198;-54
2021/12/22 09:34:12;;;;;;;0.00;0.00;;;;;;;-2.14;82.80;99523.75;5051152;28;20215;-56
2021/12/22 09:36:40;;;;;;;0.00;0.00;;;;;;;-2.17;82.98;99523.84;5051920;28;20214;-55
2021/12/22 09:39:08;;;;;;;0.00;0.00;;;;;;;-2.14;83.53;99525.50;5052051;28;20186;-56
2021/12/22 09:41:35;;;;;;;0.00;0.00;;;;;;;-2.55;83.48;99524.16;5050795;28;20240;-56
2021/12/22 09:44:04;;;;;;;0.00;0.00;;;;;;;-2.45;84.55;99511.91;5051728;28;20190;-55
2021/12/22 09:46:31;;;;;;;0.00;0.00;;;;;;;-2.37;83.60;99514.25;5051782;28;20771;-53
2021/12/22 09:49:06;;;;;;;0.00;0.00;;;;;;;-2.41;82.87;99505.81;5051274;28;20293;-57
2021/12/22 09:54:19;;;;;;;0.00;0.00;;;;;;;-2.31;84.09;99502.97;5051244;28;20566;-54
2021/12/22 09:56:46;;;;;;;0.03;0.03;;;;;;;-2.20;84.85;99492.44;5051203;28;20201;-57
2021/12/22 09:59:13;;;;;;;0.00;0.00;;;;;;;-2.17;83.70;99495.72;5051743;28;20258;-58
2021/12/22 10:01:40;;;;;;;0.00;0.00;;;;;;;-2.09;82.71;99498.88;5050598;28;20202;-56
2021/12/22 10:04:06;;;;;;;0.00;0.00;;;;;;;-2.15;82.18;99493.13;5051447;28;20181;-58
2021/12/22 10:06:33;;;;;;;0.00;0.00;;;;;;;-2.20;81.61;99490.69;5047100;28;20213;-58
2021/12/22 10:09:04;;;;;;;0.00;0.00;;;;;;;-2.28;82.96;99495.22;5049965;28;20209;-57
2021/12/22 10:11:35;;;;;;;0.00;0.00;;;;;;;-2.10;82.66;99489.53;5048694;28;20194;-56
2021/12/22 10:14:16;;;;;;;0.00;0.00;;;;;;;-2.00;83.12;99484.13;5031502;28;20203;-58
2021/12/22 10:16:47;;;;;;;0.00;0.00;;;;;;;-2.24;82.20;99495.09;5031156;28;20740;-57
2021/12/22 10:19:14;;;;;;;0.00;0.00;;;;;;;-2.18;82.47;99483.81;5046336;28;20220;-56
2021/12/22 10:21:53;;;;;;;0.00;0.00;;;;;;;-2.17;82.80;99484.66;5050420;28;20194;-57
2021/12/22 10:24:32;;;;;;;0.00;0.00;;;;;;;-2.24;82.74;99479.75;5050990;28;20704;-57
2021/12/22 10:27:06;;;;;;;0.00;0.00;;;;;;;-2.21;81.53;99476.25;5051326;28;20205;-56
2021/12/22 10:29:35;;;;;;;0.00;0.00;;;;;;;-2.02;82.66;99479.03;5050848;28;20683;-55
2021/12/22 10:32:08;;;;;;;0.00;0.00;;;;;;;-1.81;82.15;99476.66;5049323;28;20195;-56
2021/12/22 10:34:36;;;;;;;0.00;0.00;;;;;;;-1.77;81.96;99475.66;5049320;28;20222;-57
2021/12/22 10:37:03;;;;;;;0.00;0.00;;;;;;;-1.59;80.92;99463.94;5050990;28;20210;-57
2021/12/22 10:39:33;;;;;;;0.00;0.00;;;;;;;-1.64;81.63;99460.75;5050540;28;20664;-57
2021/12/22 10:42:07;;;;;;;0.00;0.00;;;;;;;-1.55;81.25;99459.56;5050923;28;20240;-57
2021/12/22 10:44:36;;;;;;;0.00;0.00;;;;;;;-1.52;81.10;99451.78;5050593;28;20179;-57
2021/12/22 10:47:20;;;;;;;0.00;0.00;;;;;;;-1.48;80.53;99449.06;5050862;28;20222;-57
2021/12/22 10:50:00;;;;;;;0.00;0.00;;;;;;;-1.52;80.58;99451.78;5050317;28;20203;-56
2021/12/22 10:52:27;;;;;;;0.00;0.00;;;;;;;-1.73;80.65;99443.13;5050235;28;20198;-55
2021/12/22 10:55:08;;;;;;;0.00;0.00;;;;;;;-1.73;81.00;99436.28;5044968;28;20214;-56
2021/12/22 10:57:38;;;;;;;0.00;0.00;;;;;;;-1.59;81.36;99438.34;5044069;28;20205;-57
2021/12/22 11:00:16;;;;;;;0.00;0.00;;;;;;;-1.62;80.70;99425.69;5049913;28;20792;-57
2021/12/22 11:02:50;;;;;;;0.00;0.00;;;;;;;-1.54;81.61;99427.97;5050143;28;20190;-57
2021/12/22 11:05:19;;;;;;;0.00;0.00;;;;;;;-1.74;81.23;99424.38;5042591;28;20199;-55
2021/12/22 11:07:46;;;;;;;0.00;0.00;;;;;;;-1.64;81.69;99419.78;5030886;28;20658;-57
2021/12/22 11:10:24;;;;;;;0.00;0.00;;;;;;;-1.79;81.90;99414.31;5029517;28;20192;-55
2021/12/22 11:13:01;;;;;;;0.00;0.00;;;;;;;-1.90;82.34;99415.53;5030759;28;20198;-53
2021/12/22 11:15:28;;;;;;;0.00;0.00;;;;;;;-1.84;82.99;99410.22;5030455;28;20340;-56
2021/12/22 11:17:55;;;;;;;0.00;0.00;;;;;;;-1.87;82.07;99398.38;5034567;28;20664;-58
2021/12/22 11:20:23;;;;;;;0.00;0.00;;;;;;;-1.77;82.15;99406.56;5049819;28;20187;-57
2021/12/22 11:22:54;;;;;;;0.00;0.00;;;;;;;-1.77;83.19;99408.31;5050272;28;20218;-57
2021/12/22 11:25:21;;;;;;;0.00;0.00;;;;;;;-1.72;82.73;99404.69;5050513;28;20675;-56
2021/12/22 11:27:52;;;;;;;0.00;0.00;;;;;;;-1.75;82.42;99403.97;5050557;28;20179;-58
2021/12/22 11:30:20;;;;;;;0.00;0.00;;;;;;;-1.70;82.51;99399.53;5049462;28;20196;-57
2021/12/22 11:32:48;;;;;;;0.00;0.00;;;;;;;-1.78;83.34;99392.09;5051348;28;20593;-56
2021/12/22 11:35:16;;;;;;;0.00;0.00;;;;;;;-1.79;83.17;99390.41;5052801;28;20779;-56
2021/12/22 11:37:43;;;;;;;0.00;0.00;;;;;;;-1.87;82.95;99392.41;5054033;28;20278;-56
2021/12/22 11:40:13;;;;;;;0.00;0.00;;;;;;;-1.76;81.80;99392.06;5052719;28;20270;-56
2021/12/22 11:42:39;;;;;;;0.00;0.00;;;;;;;-1.91;81.04;99390.84;5050669;28;20199;-56
2021/12/22 11:45:12;;;;;;;0.00;0.00;;;;;;;-2.08;83.62;99398.22;5053549;28;20629;-56
2021/12/22 11:47:41;;;;;;;0.00;0.00;;;;;;;-2.10;84.13;99401.69;5050923;28;20273;-57
2021/12/22 11:50:15;;;;;;;0.00;0.00;;;;;;;-1.99;84.73;99396.22;5033237;28;20619;-57
2021/12/22 11:52:44;;;;;;;0.00;0.00;;;;;;;-1.98;84.53;99396.16;5033703;28;20204;-57